sensor_id;sensor_type;location;lat;lon;timestamp;P1;durP1;ratioP1;P2;durP2;ratioP2
8610;SDS011;4343;53.648;10.098;2023-06-19T00:01:07;4.88;;;4.57;;
8610;SDS011;4343;53.648;10.098;2023-06-19T00:03:33;4.60;;;4.32;;
8610;SDS011;4343;53.648;10.098;2023-06-19T00:05:58;4.38;;;4.18;;
8610;SDS011;4343;53.648;10.098;2023-06-19T00:08:24;4.40;;;4.20;;
8610;SDS011;4343;53.648;10.098;2023-06-19T00:10:49;4.40;;;4.20;;
8610;SDS011;4343;53.648;10.098;2023-06-19T00:13:15;4.95;;;4.55;;
8610;SDS011;4343;53.648;10.098;2023-06-19T00:15:40;4.65;;;4.35;;
8610;SDS011;4343;53.648;10.098;2023-06-19T00:18:06;4.80;;;4.50;;
8610;SDS011;4343;53.648;10.098;2023-06-19T00:20:32;4.90;;;4.60;;
8610;SDS011;4343;53.648;10.098;2023-06-19T00:22:57;4.15;;;3.95;;
8610;SDS011;4343;53.648;10.098;2023-06-19T00:25:23;4.35;;;4.13;;
8610;SDS011;4343;53.648;10.098;2023-06-19T00:27:48;4.70;;;4.50;;
8610;SDS011;4343;53.648;10.098;2023-06-19T00:30:14;4.70;;;4.40;;
8610;SDS011;4343;53.648;10.098;2023-06-19T00:32:40;4.65;;;4.45;;
8610;SDS011;4343;53.648;10.098;2023-06-19T00:35:14;4.78;;;4.47;;
8610;SDS011;4343;53.648;10.098;2023-06-19T00:37:41;5.47;;;5.07;;
8610;SDS011;4343;53.648;10.098;2023-06-19T00:40:10;4.70;;;4.50;;
8610;SDS011;4343;53.648;10.098;2023-06-19T00:42:57;4.50;;;4.32;;
8610;SDS011;4343;53.648;10.098;2023-06-19T00:45:23;4.38;;;4.18;;
8610;SDS011;4343;53.648;10.098;2023-06-19T00:47:50;5.10;;;4.72;;
8610;SDS011;4343;53.648;10.098;2023-06-19T00:50:20;5.07;;;4.78;;
8610;SDS011;4343;53.648;10.098;2023-06-19T00:52:46;5.00;;;4.68;;
8610;SDS011;4343;53.648;10.098;2023-06-19T00:55:12;4.60;;;4.40;;
8610;SDS011;4343;53.648;10.098;2023-06-19T00:57:39;4.78;;;4.10;;
8610;SDS011;4343;53.648;10.098;2023-06-19T01:00:06;5.45;;;5.05;;
8610;SDS011;4343;53.648;10.098;2023-06-19T01:02:33;5.40;;;5.10;;
8610;SDS011;4343;53.648;10.098;2023-06-19T01:04:59;4.97;;;4.68;;
8610;SDS011;4343;53.648;10.098;2023-06-19T01:07:45;4.72;;;4.50;;
8610;SDS011;4343;53.648;10.098;2023-06-19T01:10:21;4.43;;;4.22;;
8610;SDS011;4343;53.648;10.098;2023-06-19T01:13:14;4.97;;;4.57;;
8610;SDS011;4343;53.648;10.098;2023-06-19T01:15:44;5.20;;;4.80;;
8610;SDS011;4343;53.648;10.098;2023-06-19T01:18:12;5.03;;;4.82;;
8610;SDS011;4343;53.648;10.098;2023-06-19T01:20:38;4.72;;;4.50;;
8610;SDS011;4343;53.648;10.098;2023-06-19T01:23:10;4.40;;;4.20;;
8610;SDS011;4343;53.648;10.098;2023-06-19T01:25:36;4.80;;;4.60;;
8610;SDS011;4343;53.648;10.098;2023-06-19T01:28:03;4.75;;;4.55;;
8610;SDS011;4343;53.648;10.098;2023-06-19T01:30:31;4.93;;;4.43;;
8610;SDS011;4343;53.648;10.098;2023-06-19T01:33:04;5.55;;;5.05;;
8610;SDS011;4343;53.648;10.098;2023-06-19T01:35:41;4.93;;;4.72;;
8610;SDS011;4343;53.648;10.098;2023-06-19T01:38:08;5.30;;;4.90;;
8610;SDS011;4343;53.648;10.098;2023-06-19T01:40:34;5.03;;;4.68;;
8610;SDS011;4343;53.648;10.098;2023-06-19T01:43:01;4.80;;;4.60;;
8610;SDS011;4343;53.648;10.098;2023-06-19T01:45:29;5.10;;;4.80;;
8610;SDS011;4343;53.648;10.098;2023-06-19T01:47:55;5.28;;;4.88;;
8610;SDS011;4343;53.648;10.098;2023-06-19T01:50:24;5.10;;;4.78;;
8610;SDS011;4343;53.648;10.098;2023-06-19T01:52:50;5.55;;;5.15;;
8610;SDS011;4343;53.648;10.098;2023-06-19T01:55:16;4.57;;;4.30;;
8610;SDS011;4343;53.648;10.098;2023-06-19T01:57:41;4.78;;;4.57;;
8610;SDS011;4343;53.648;10.098;2023-06-19T02:00:07;5.10;;;4.80;;
8610;SDS011;4343;53.648;10.098;2023-06-19T02:02:35;5.00;;;4.70;;
8610;SDS011;4343;53.648;10.098;2023-06-19T02:05:01;5.28;;;4.97;;
8610;SDS011;4343;53.648;10.098;2023-06-19T02:07:26;4.57;;;4.28;;
8610;SDS011;4343;53.648;10.098;2023-06-19T02:09:52;4.95;;;4.68;;
8610;SDS011;4343;53.648;10.098;2023-06-19T02:12:17;5.80;;;5.40;;
8610;SDS011;4343;53.648;10.098;2023-06-19T02:14:43;4.90;;;4.68;;
8610;SDS011;4343;53.648;10.098;2023-06-19T02:17:08;5.00;;;4.78;;
8610;SDS011;4343;53.648;10.098;2023-06-19T02:19:34;4.82;;;4.53;;
8610;SDS011;4343;53.648;10.098;2023-06-19T02:21:59;6.05;;;5.53;;
8610;SDS011;4343;53.648;10.098;2023-06-19T02:24:25;5.05;;;4.82;;
8610;SDS011;4343;53.648;10.098;2023-06-19T02:26:51;5.20;;;4.90;;
8610;SDS011;4343;53.648;10.098;2023-06-19T02:29:16;4.97;;;4.75;;
8610;SDS011;4343;53.648;10.098;2023-06-19T02:31:42;5.22;;;5.00;;
8610;SDS011;4343;53.648;10.098;2023-06-19T02:34:09;5.60;;;5.30;;
8610;SDS011;4343;53.648;10.098;2023-06-19T02:36:34;5.28;;;4.90;;
8610;SDS011;4343;53.648;10.098;2023-06-19T02:39:00;5.30;;;5.00;;
8610;SDS011;4343;53.648;10.098;2023-06-19T02:41:26;4.75;;;4.47;;
8610;SDS011;4343;53.648;10.098;2023-06-19T02:43:52;5.20;;;4.80;;
8610;SDS011;4343;53.648;10.098;2023-06-19T02:46:17;4.97;;;4.78;;
8610;SDS011;4343;53.648;10.098;2023-06-19T02:48:43;5.20;;;4.90;;
8610;SDS011;4343;53.648;10.098;2023-06-19T02:51:08;5.93;;;5.63;;
8610;SDS011;4343;53.648;10.098;2023-06-19T02:53:34;5.40;;;5.10;;
8610;SDS011;4343;53.648;10.098;2023-06-19T02:56:00;5.40;;;5.03;;
8610;SDS011;4343;53.648;10.098;2023-06-19T02:58:25;5.47;;;5.07;;
8610;SDS011;4343;53.648;10.098;2023-06-19T03:00:52;4.82;;;4.63;;
8610;SDS011;4343;53.648;10.098;2023-06-19T03:03:17;5.13;;;4.82;;
8610;SDS011;4343;53.648;10.098;2023-06-19T03:05:43;4.78;;;4.57;;
8610;SDS011;4343;53.648;10.098;2023-06-19T03:08:09;5.00;;;4.80;;
8610;SDS011;4343;53.648;10.098;2023-06-19T03:10:34;5.20;;;4.90;;
8610;SDS011;4343;53.648;10.098;2023-06-19T03:13:00;5.40;;;5.20;;
8610;SDS011;4343;53.648;10.098;2023-06-19T03:15:25;5.10;;;4.80;;
8610;SDS011;4343;53.648;10.098;2023-06-19T03:17:52;5.75;;;5.35;;
8610;SDS011;4343;53.648;10.098;2023-06-19T03:20:18;5.53;;;5.13;;
8610;SDS011;4343;53.648;10.098;2023-06-19T03:22:45;5.35;;;5.05;;
8610;SDS011;4343;53.648;10.098;2023-06-19T03:25:11;5.03;;;4.75;;
8610;SDS011;4343;53.648;10.098;2023-06-19T03:27:37;5.57;;;5.25;;
8610;SDS011;4343;53.648;10.098;2023-06-19T03:30:03;5.53;;;5.20;;
8610;SDS011;4343;53.648;10.098;2023-06-19T03:32:33;5.47;;;5.18;;
8610;SDS011;4343;53.648;10.098;2023-06-19T03:34:58;5.80;;;5.40;;
8610;SDS011;4343;53.648;10.098;2023-06-19T03:37:24;5.10;;;4.78;;
8610;SDS011;4343;53.648;10.098;2023-06-19T03:39:50;5.60;;;5.22;;
8610;SDS011;4343;53.648;10.098;2023-06-19T03:42:16;5.32;;;5.03;;
8610;SDS011;4343;53.648;10.098;2023-06-19T03:44:41;5.63;;;5.32;;
8610;SDS011;4343;53.648;10.098;2023-06-19T03:47:07;4.88;;;4.68;;
8610;SDS011;4343;53.648;10.098;2023-06-19T03:49:32;5.40;;;5.13;;
8610;SDS011;4343;53.648;10.098;2023-06-19T03:51:58;5.68;;;5.38;;
8610;SDS011;4343;53.648;10.098;2023-06-19T03:54:23;5.50;;;5.10;;
8610;SDS011;4343;53.648;10.098;2023-06-19T03:56:50;5.40;;;5.10;;
8610;SDS011;4343;53.648;10.098;2023-06-19T03:59:16;5.88;;;5.57;;
8610;SDS011;4343;53.648;10.098;2023-06-19T04:01:41;6.03;;;5.63;;
8610;SDS011;4343;53.648;10.098;2023-06-19T04:04:07;6.03;;;5.63;;
8610;SDS011;4343;53.648;10.098;2023-06-19T04:06:33;6.10;;;5.78;;
8610;SDS011;4343;53.648;10.098;2023-06-19T04:08:58;5.57;;;5.28;;
8610;SDS011;4343;53.648;10.098;2023-06-19T04:11:24;5.55;;;5.25;;
8610;SDS011;4343;53.648;10.098;2023-06-19T04:13:49;6.00;;;5.70;;
8610;SDS011;4343;53.648;10.098;2023-06-19T04:16:15;5.90;;;5.50;;
8610;SDS011;4343;53.648;10.098;2023-06-19T04:18:40;5.68;;;5.38;;
8610;SDS011;4343;53.648;10.098;2023-06-19T04:21:06;6.53;;;5.93;;
8610;SDS011;4343;53.648;10.098;2023-06-19T04:23:32;5.85;;;5.55;;
8610;SDS011;4343;53.648;10.098;2023-06-19T04:25:57;5.63;;;5.32;;
8610;SDS011;4343;53.648;10.098;2023-06-19T04:28:23;6.15;;;5.75;;
8610;SDS011;4343;53.648;10.098;2023-06-19T04:30:48;6.40;;;6.00;;
8610;SDS011;4343;53.648;10.098;2023-06-19T04:33:14;6.25;;;5.80;;
8610;SDS011;4343;53.648;10.098;2023-06-19T04:35:39;6.28;;;5.88;;
8610;SDS011;4343;53.648;10.098;2023-06-19T04:38:09;5.63;;;5.32;;
8610;SDS011;4343;53.648;10.098;2023-06-19T04:40:35;6.30;;;5.90;;
8610;SDS011;4343;53.648;10.098;2023-06-19T04:43:01;6.10;;;5.80;;
8610;SDS011;4343;53.648;10.098;2023-06-19T04:45:27;6.60;;;6.10;;
8610;SDS011;4343;53.648;10.098;2023-06-19T04:47:53;6.03;;;5.57;;
8610;SDS011;4343;53.648;10.098;2023-06-19T04:50:18;6.25;;;5.78;;
8610;SDS011;4343;53.648;10.098;2023-06-19T04:52:44;6.07;;;5.68;;
8610;SDS011;4343;53.648;10.098;2023-06-19T04:55:09;5.88;;;5.55;;
8610;SDS011;4343;53.648;10.098;2023-06-19T04:57:35;5.93;;;5.63;;
8610;SDS011;4343;53.648;10.098;2023-06-19T05:00:03;6.20;;;5.80;;
8610;SDS011;4343;53.648;10.098;2023-06-19T05:02:31;6.45;;;6.15;;
8610;SDS011;4343;53.648;10.098;2023-06-19T05:04:57;6.72;;;6.32;;
8610;SDS011;4343;53.648;10.098;2023-06-19T05:07:22;6.13;;;5.60;;
8610;SDS011;4343;53.648;10.098;2023-06-19T05:09:48;6.78;;;6.38;;
8610;SDS011;4343;53.648;10.098;2023-06-19T05:12:13;6.13;;;5.82;;
8610;SDS011;4343;53.648;10.098;2023-06-19T05:14:39;6.03;;;5.63;;
8610;SDS011;4343;53.648;10.098;2023-06-19T05:17:05;6.78;;;6.43;;
8610;SDS011;4343;53.648;10.098;2023-06-19T05:19:31;6.88;;;6.50;;
8610;SDS011;4343;53.648;10.098;2023-06-19T05:21:56;6.30;;;5.93;;
8610;SDS011;4343;53.648;10.098;2023-06-19T05:24:22;6.72;;;6.35;;
8610;SDS011;4343;53.648;10.098;2023-06-19T05:26:47;6.63;;;6.22;;
8610;SDS011;4343;53.648;10.098;2023-06-19T05:29:13;6.57;;;6.28;;
8610;SDS011;4343;53.648;10.098;2023-06-19T05:31:38;6.68;;;6.28;;
8610;SDS011;4343;53.648;10.098;2023-06-19T05:34:03;6.97;;;6.47;;
8610;SDS011;4343;53.648;10.098;2023-06-19T05:36:29;6.60;;;6.20;;
8610;SDS011;4343;53.648;10.098;2023-06-19T05:38:55;6.28;;;5.97;;
8610;SDS011;4343;53.648;10.098;2023-06-19T05:41:21;8.68;;;6.57;;
8610;SDS011;4343;53.648;10.098;2023-06-19T05:43:47;7.80;;;7.05;;
8610;SDS011;4343;53.648;10.098;2023-06-19T05:46:12;6.80;;;6.20;;
8610;SDS011;4343;53.648;10.098;2023-06-19T05:48:38;6.85;;;6.45;;
8610;SDS011;4343;53.648;10.098;2023-06-19T05:51:03;6.78;;;6.30;;
8610;SDS011;4343;53.648;10.098;2023-06-19T05:53:29;7.05;;;6.70;;
8610;SDS011;4343;53.648;10.098;2023-06-19T05:55:56;6.80;;;6.20;;
8610;SDS011;4343;53.648;10.098;2023-06-19T05:58:23;6.68;;;6.38;;
8610;SDS011;4343;53.648;10.098;2023-06-19T06:00:50;7.60;;;7.10;;
8610;SDS011;4343;53.648;10.098;2023-06-19T06:03:22;6.75;;;6.40;;
8610;SDS011;4343;53.648;10.098;2023-06-19T06:05:48;7.10;;;6.60;;
8610;SDS011;4343;53.648;10.098;2023-06-19T06:08:14;7.53;;;7.13;;
8610;SDS011;4343;53.648;10.098;2023-06-19T06:10:40;7.50;;;7.10;;
8610;SDS011;4343;53.648;10.098;2023-06-19T06:13:06;7.68;;;7.10;;
8610;SDS011;4343;53.648;10.098;2023-06-19T06:15:31;7.30;;;6.72;;
8610;SDS011;4343;53.648;10.098;2023-06-19T06:17:57;6.45;;;6.13;;
8610;SDS011;4343;53.648;10.098;2023-06-19T06:20:22;8.50;;;7.72;;
8610;SDS011;4343;53.648;10.098;2023-06-19T06:22:48;6.75;;;6.35;;
8610;SDS011;4343;53.648;10.098;2023-06-19T06:25:13;7.25;;;6.70;;
8610;SDS011;4343;53.648;10.098;2023-06-19T06:27:39;6.63;;;6.18;;
8610;SDS011;4343;53.648;10.098;2023-06-19T06:30:04;6.88;;;6.47;;
8610;SDS011;4343;53.648;10.098;2023-06-19T06:32:30;7.20;;;6.80;;
8610;SDS011;4343;53.648;10.098;2023-06-19T06:34:56;7.80;;;7.28;;
8610;SDS011;4343;53.648;10.098;2023-06-19T06:37:22;6.85;;;6.45;;
8610;SDS011;4343;53.648;10.098;2023-06-19T06:39:50;7.07;;;6.57;;
8610;SDS011;4343;53.648;10.098;2023-06-19T06:42:16;7.55;;;6.80;;
8610;SDS011;4343;53.648;10.098;2023-06-19T06:44:42;8.00;;;7.40;;
8610;SDS011;4343;53.648;10.098;2023-06-19T06:47:07;7.10;;;6.63;;
8610;SDS011;4343;53.648;10.098;2023-06-19T06:49:33;7.88;;;7.28;;
8610;SDS011;4343;53.648;10.098;2023-06-19T06:51:58;7.90;;;7.30;;
8610;SDS011;4343;53.648;10.098;2023-06-19T06:54:24;7.22;;;6.72;;
8610;SDS011;4343;53.648;10.098;2023-06-19T06:56:50;7.80;;;7.28;;
8610;SDS011;4343;53.648;10.098;2023-06-19T06:59:21;7.70;;;7.10;;
8610;SDS011;4343;53.648;10.098;2023-06-19T07:01:46;7.25;;;6.78;;
8610;SDS011;4343;53.648;10.098;2023-06-19T07:04:12;7.70;;;7.10;;
8610;SDS011;4343;53.648;10.098;2023-06-19T07:06:37;8.57;;;7.97;;
8610;SDS011;4343;53.648;10.098;2023-06-19T07:09:03;7.97;;;7.38;;
8610;SDS011;4343;53.648;10.098;2023-06-19T07:11:28;7.80;;;7.30;;
8610;SDS011;4343;53.648;10.098;2023-06-19T07:13:54;7.68;;;7.07;;
8610;SDS011;4343;53.648;10.098;2023-06-19T07:16:19;8.15;;;7.45;;
8610;SDS011;4343;53.648;10.098;2023-06-19T07:18:45;7.65;;;7.25;;
8610;SDS011;4343;53.648;10.098;2023-06-19T07:21:13;7.78;;;7.18;;
8610;SDS011;4343;53.648;10.098;2023-06-19T07:23:40;8.57;;;7.88;;
8610;SDS011;4343;53.648;10.098;2023-06-19T07:26:07;8.18;;;7.63;;
8610;SDS011;4343;53.648;10.098;2023-06-19T07:28:34;8.02;;;7.55;;
8610;SDS011;4343;53.648;10.098;2023-06-19T07:31:01;8.48;;;7.88;;
8610;SDS011;4343;53.648;10.098;2023-06-19T07:33:27;6.97;;;6.57;;
8610;SDS011;4343;53.648;10.098;2023-06-19T07:35:53;7.72;;;7.28;;
8610;SDS011;4343;53.648;10.098;2023-06-19T07:38:19;8.30;;;7.72;;
8610;SDS011;4343;53.648;10.098;2023-06-19T07:40:44;8.32;;;7.72;;
8610;SDS011;4343;53.648;10.098;2023-06-19T07:43:10;7.43;;;6.97;;
8610;SDS011;4343;53.648;10.098;2023-06-19T07:45:35;7.57;;;7.05;;
8610;SDS011;4343;53.648;10.098;2023-06-19T07:48:01;8.30;;;7.80;;
8610;SDS011;4343;53.648;10.098;2023-06-19T07:50:27;7.93;;;7.32;;
8610;SDS011;4343;53.648;10.098;2023-06-19T07:52:53;8.57;;;7.88;;
8610;SDS011;4343;53.648;10.098;2023-06-19T07:55:18;9.13;;;8.30;;
8610;SDS011;4343;53.648;10.098;2023-06-19T07:57:44;8.75;;;8.00;;
8610;SDS011;4343;53.648;10.098;2023-06-19T08:00:09;8.32;;;7.72;;
8610;SDS011;4343;53.648;10.098;2023-06-19T08:02:37;7.80;;;7.32;;
8610;SDS011;4343;53.648;10.098;2023-06-19T08:05:06;8.60;;;7.85;;
8610;SDS011;4343;53.648;10.098;2023-06-19T08:07:33;8.57;;;7.97;;
8610;SDS011;4343;53.648;10.098;2023-06-19T08:09:59;9.07;;;8.40;;
8610;SDS011;4343;53.648;10.098;2023-06-19T08:12:25;8.70;;;8.00;;
8610;SDS011;4343;53.648;10.098;2023-06-19T08:14:51;7.90;;;7.40;;
8610;SDS011;4343;53.648;10.098;2023-06-19T08:17:16;8.07;;;7.68;;
8610;SDS011;4343;53.648;10.098;2023-06-19T08:19:42;8.10;;;7.60;;
8610;SDS011;4343;53.648;10.098;2023-06-19T08:22:08;7.90;;;7.32;;
8610;SDS011;4343;53.648;10.098;2023-06-19T08:24:34;8.30;;;7.70;;
8610;SDS011;4343;53.648;10.098;2023-06-19T08:27:06;8.40;;;7.80;;
8610;SDS011;4343;53.648;10.098;2023-06-19T08:29:32;8.77;;;8.00;;
8610;SDS011;4343;53.648;10.098;2023-06-19T08:31:58;8.57;;;8.07;;
8610;SDS011;4343;53.648;10.098;2023-06-19T08:34:24;7.93;;;7.43;;
8610;SDS011;4343;53.648;10.098;2023-06-19T08:36:49;8.70;;;8.10;;
8610;SDS011;4343;53.648;10.098;2023-06-19T08:39:15;9.15;;;8.25;;
8610;SDS011;4343;53.648;10.098;2023-06-19T08:41:40;8.23;;;7.72;;
8610;SDS011;4343;53.648;10.098;2023-06-19T08:44:07;8.15;;;7.50;;
8610;SDS011;4343;53.648;10.098;2023-06-19T08:46:33;8.68;;;7.93;;
8610;SDS011;4343;53.648;10.098;2023-06-19T08:49:01;8.18;;;7.68;;
8610;SDS011;4343;53.648;10.098;2023-06-19T08:51:27;8.20;;;7.60;;
8610;SDS011;4343;53.648;10.098;2023-06-19T08:53:56;8.57;;;7.80;;
8610;SDS011;4343;53.648;10.098;2023-06-19T08:56:25;8.35;;;7.75;;
8610;SDS011;4343;53.648;10.098;2023-06-19T08:58:51;7.90;;;7.30;;
8610;SDS011;4343;53.648;10.098;2023-06-19T09:01:17;7.40;;;7.00;;
8610;SDS011;4343;53.648;10.098;2023-06-19T09:03:44;7.75;;;7.30;;
8610;SDS011;4343;53.648;10.098;2023-06-19T09:06:11;8.13;;;7.60;;
8610;SDS011;4343;53.648;10.098;2023-06-19T09:08:41;7.80;;;7.40;;
8610;SDS011;4343;53.648;10.098;2023-06-19T09:11:06;7.68;;;7.00;;
8610;SDS011;4343;53.648;10.098;2023-06-19T09:13:32;7.97;;;7.47;;
8610;SDS011;4343;53.648;10.098;2023-06-19T09:15:58;8.15;;;7.30;;
8610;SDS011;4343;53.648;10.098;2023-06-19T09:18:44;8.95;;;7.93;;
8610;SDS011;4343;53.648;10.098;2023-06-19T09:21:15;7.40;;;6.90;;
8610;SDS011;4343;53.648;10.098;2023-06-19T09:23:46;7.60;;;7.05;;
8610;SDS011;4343;53.648;10.098;2023-06-19T09:26:15;8.23;;;7.63;;
8610;SDS011;4343;53.648;10.098;2023-06-19T09:28:42;7.30;;;6.90;;
8610;SDS011;4343;53.648;10.098;2023-06-19T09:31:08;7.63;;;6.95;;
8610;SDS011;4343;53.648;10.098;2023-06-19T09:33:34;8.25;;;7.65;;
8610;SDS011;4343;53.648;10.098;2023-06-19T09:36:01;8.13;;;7.50;;
8610;SDS011;4343;53.648;10.098;2023-06-19T09:38:28;7.68;;;7.18;;
8610;SDS011;4343;53.648;10.098;2023-06-19T09:40:56;7.35;;;6.95;;
8610;SDS011;4343;53.648;10.098;2023-06-19T09:43:28;8.27;;;7.50;;
8610;SDS011;4343;53.648;10.098;2023-06-19T09:45:58;7.88;;;7.32;;
8610;SDS011;4343;53.648;10.098;2023-06-19T09:48:29;7.25;;;6.65;;
8610;SDS011;4343;53.648;10.098;2023-06-19T09:51:00;7.97;;;7.32;;
8610;SDS011;4343;53.648;10.098;2023-06-19T09:53:34;7.18;;;6.78;;
8610;SDS011;4343;53.648;10.098;2023-06-19T09:56:00;7.40;;;7.00;;
8610;SDS011;4343;53.648;10.098;2023-06-19T09:58:26;7.70;;;7.00;;
8610;SDS011;4343;53.648;10.098;2023-06-19T10:00:53;7.82;;;7.32;;
8610;SDS011;4343;53.648;10.098;2023-06-19T10:03:20;7.68;;;7.10;;
8610;SDS011;4343;53.648;10.098;2023-06-19T10:05:45;6.95;;;6.50;;
8610;SDS011;4343;53.648;10.098;2023-06-19T10:08:11;6.97;;;6.40;;
8610;SDS011;4343;53.648;10.098;2023-06-19T10:10:37;7.43;;;6.80;;
8610;SDS011;4343;53.648;10.098;2023-06-19T10:13:15;6.75;;;6.35;;
8610;SDS011;4343;53.648;10.098;2023-06-19T10:15:42;7.15;;;6.68;;
8610;SDS011;4343;53.648;10.098;2023-06-19T10:18:13;7.82;;;7.32;;
8610;SDS011;4343;53.648;10.098;2023-06-19T10:20:41;6.40;;;6.05;;
8610;SDS011;4343;53.648;10.098;2023-06-19T10:23:17;7.22;;;6.65;;
8610;SDS011;4343;53.648;10.098;2023-06-19T10:25:55;7.32;;;6.57;;
8610;SDS011;4343;53.648;10.098;2023-06-19T10:28:32;7.20;;;6.60;;
8610;SDS011;4343;53.648;10.098;2023-06-19T10:31:05;7.53;;;6.82;;
8610;SDS011;4343;53.648;10.098;2023-06-19T10:33:33;7.07;;;6.68;;
8610;SDS011;4343;53.648;10.098;2023-06-19T10:36:01;6.40;;;6.07;;
8610;SDS011;4343;53.648;10.098;2023-06-19T10:38:39;7.90;;;7.40;;
8610;SDS011;4343;53.648;10.098;2023-06-19T10:41:05;7.57;;;7.05;;
8610;SDS011;4343;53.648;10.098;2023-06-19T10:43:39;9.30;;;6.70;;
8610;SDS011;4343;53.648;10.098;2023-06-19T10:46:04;6.45;;;6.15;;
8610;SDS011;4343;53.648;10.098;2023-06-19T10:48:29;7.13;;;6.60;;
8610;SDS011;4343;53.648;10.098;2023-06-19T10:50:55;7.57;;;6.97;;
8610;SDS011;4343;53.648;10.098;2023-06-19T10:55:54;8.00;;;7.43;;
8610;SDS011;4343;53.648;10.098;2023-06-19T10:58:24;8.27;;;7.68;;
8610;SDS011;4343;53.648;10.098;2023-06-19T11:00:50;8.13;;;7.63;;
8610;SDS011;4343;53.648;10.098;2023-06-19T11:03:15;8.40;;;7.57;;
8610;SDS011;4343;53.648;10.098;2023-06-19T11:05:43;7.88;;;7.38;;
8610;SDS011;4343;53.648;10.098;2023-06-19T11:08:09;8.90;;;8.10;;
8610;SDS011;4343;53.648;10.098;2023-06-19T11:10:35;7.72;;;7.32;;
8610;SDS011;4343;53.648;10.098;2023-06-19T11:13:01;8.18;;;7.68;;
8610;SDS011;4343;53.648;10.098;2023-06-19T11:15:30;7.90;;;7.32;;
8610;SDS011;4343;53.648;10.098;2023-06-19T11:17:57;7.90;;;7.35;;
8610;SDS011;4343;53.648;10.098;2023-06-19T11:20:23;8.02;;;7.47;;
8610;SDS011;4343;53.648;10.098;2023-06-19T11:22:53;7.85;;;7.28;;
8610;SDS011;4343;53.648;10.098;2023-06-19T11:25:23;8.05;;;7.55;;
8610;SDS011;4343;53.648;10.098;2023-06-19T11:27:49;8.13;;;7.53;;
8610;SDS011;4343;53.648;10.098;2023-06-19T11:30:17;8.77;;;8.15;;
8610;SDS011;4343;53.648;10.098;2023-06-19T11:32:45;8.75;;;8.25;;
8610;SDS011;4343;53.648;10.098;2023-06-19T11:35:13;7.55;;;7.15;;
8610;SDS011;4343;53.648;10.098;2023-06-19T11:37:41;9.23;;;8.48;;
8610;SDS011;4343;53.648;10.098;2023-06-19T11:40:08;15.02;;;8.05;;
8610;SDS011;4343;53.648;10.098;2023-06-19T11:42:51;8.63;;;8.07;;
8610;SDS011;4343;53.648;10.098;2023-06-19T11:45:17;7.78;;;7.38;;
8610;SDS011;4343;53.648;10.098;2023-06-19T11:47:44;8.57;;;8.00;;
8610;SDS011;4343;53.648;10.098;2023-06-19T11:50:10;8.18;;;7.63;;
8610;SDS011;4343;53.648;10.098;2023-06-19T11:52:36;9.15;;;8.48;;
8610;SDS011;4343;53.648;10.098;2023-06-19T11:55:02;9.40;;;8.70;;
8610;SDS011;4343;53.648;10.098;2023-06-19T11:57:27;8.77;;;8.18;;
8610;SDS011;4343;53.648;10.098;2023-06-19T11:59:53;8.98;;;8.43;;
8610;SDS011;4343;53.648;10.098;2023-06-19T12:02:19;9.20;;;8.50;;
8610;SDS011;4343;53.648;10.098;2023-06-19T12:04:44;8.38;;;7.88;;
8610;SDS011;4343;53.648;10.098;2023-06-19T12:07:10;8.70;;;8.00;;
8610;SDS011;4343;53.648;10.098;2023-06-19T12:09:36;8.90;;;7.22;;
8610;SDS011;4343;53.648;10.098;2023-06-19T12:12:03;8.40;;;7.80;;
8610;SDS011;4343;53.648;10.098;2023-06-19T12:14:30;8.25;;;7.85;;
8610;SDS011;4343;53.648;10.098;2023-06-19T12:16:55;7.18;;;6.70;;
8610;SDS011;4343;53.648;10.098;2023-06-19T12:19:21;7.55;;;7.07;;
8610;SDS011;4343;53.648;10.098;2023-06-19T12:21:46;7.22;;;6.90;;
8610;SDS011;4343;53.648;10.098;2023-06-19T12:24:12;7.32;;;6.70;;
8610;SDS011;4343;53.648;10.098;2023-06-19T12:26:37;7.65;;;6.15;;
8610;SDS011;4343;53.648;10.098;2023-06-19T12:29:04;6.82;;;6.32;;
8610;SDS011;4343;53.648;10.098;2023-06-19T12:31:32;6.63;;;6.13;;
8610;SDS011;4343;53.648;10.098;2023-06-19T12:33:58;6.70;;;6.30;;
8610;SDS011;4343;53.648;10.098;2023-06-19T12:36:24;6.93;;;6.50;;
8610;SDS011;4343;53.648;10.098;2023-06-19T12:38:52;6.30;;;5.80;;
8610;SDS011;4343;53.648;10.098;2023-06-19T12:41:18;6.18;;;5.88;;
8610;SDS011;4343;53.648;10.098;2023-06-19T12:43:44;6.38;;;5.85;;
8610;SDS011;4343;53.648;10.098;2023-06-19T12:46:10;5.40;;;5.10;;
8610;SDS011;4343;53.648;10.098;2023-06-19T12:48:35;6.10;;;5.57;;
8610;SDS011;4343;53.648;10.098;2023-06-19T12:51:01;7.78;;;5.95;;
8610;SDS011;4343;53.648;10.098;2023-06-19T12:53:27;5.20;;;4.85;;
8610;SDS011;4343;53.648;10.098;2023-06-19T12:55:56;5.60;;;5.20;;
8610;SDS011;4343;53.648;10.098;2023-06-19T12:58:22;5.97;;;5.75;;
8610;SDS011;4343;53.648;10.098;2023-06-19T13:00:47;6.30;;;5.70;;
8610;SDS011;4343;53.648;10.098;2023-06-19T13:03:13;5.80;;;5.50;;
8610;SDS011;4343;53.648;10.098;2023-06-19T13:05:38;5.55;;;5.15;;
8610;SDS011;4343;53.648;10.098;2023-06-19T13:08:04;5.68;;;5.22;;
8610;SDS011;4343;53.648;10.098;2023-06-19T13:10:30;5.63;;;5.32;;
8610;SDS011;4343;53.648;10.098;2023-06-19T13:12:55;5.85;;;5.43;;
8610;SDS011;4343;53.648;10.098;2023-06-19T13:15:23;6.07;;;5.65;;
8610;SDS011;4343;53.648;10.098;2023-06-19T13:17:48;5.63;;;5.20;;
8610;SDS011;4343;53.648;10.098;2023-06-19T13:20:14;5.68;;;5.38;;
8610;SDS011;4343;53.648;10.098;2023-06-19T13:22:40;5.45;;;5.03;;
8610;SDS011;4343;53.648;10.098;2023-06-19T13:25:06;5.80;;;5.45;;
8610;SDS011;4343;53.648;10.098;2023-06-19T13:27:32;5.57;;;5.20;;
8610;SDS011;4343;53.648;10.098;2023-06-19T13:29:59;5.85;;;5.30;;
8610;SDS011;4343;53.648;10.098;2023-06-19T13:32:25;5.10;;;4.82;;
8610;SDS011;4343;53.648;10.098;2023-06-19T13:34:51;5.72;;;5.30;;
8610;SDS011;4343;53.648;10.098;2023-06-19T13:37:17;6.30;;;5.90;;
8610;SDS011;4343;53.648;10.098;2023-06-19T13:39:43;5.07;;;4.68;;
8610;SDS011;4343;53.648;10.098;2023-06-19T13:42:09;5.10;;;4.90;;
8610;SDS011;4343;53.648;10.098;2023-06-19T13:44:34;5.40;;;5.00;;
8610;SDS011;4343;53.648;10.098;2023-06-19T13:47:00;8.45;;;4.90;;
8610;SDS011;4343;53.648;10.098;2023-06-19T13:49:25;4.55;;;4.28;;
8610;SDS011;4343;53.648;10.098;2023-06-19T13:51:51;4.75;;;4.32;;
8610;SDS011;4343;53.648;10.098;2023-06-19T13:54:17;5.13;;;4.82;;
8610;SDS011;4343;53.648;10.098;2023-06-19T13:56:45;4.55;;;4.35;;
8610;SDS011;4343;53.648;10.098;2023-06-19T13:59:12;6.28;;;4.43;;
8610;SDS011;4343;53.648;10.098;2023-06-19T14:01:37;4.50;;;4.20;;
8610;SDS011;4343;53.648;10.098;2023-06-19T14:04:04;5.57;;;4.47;;
8610;SDS011;4343;53.648;10.098;2023-06-19T14:06:29;4.20;;;4.00;;
8610;SDS011;4343;53.648;10.098;2023-06-19T14:08:55;4.63;;;4.25;;
8610;SDS011;4343;53.648;10.098;2023-06-19T14:11:20;4.20;;;4.00;;
8610;SDS011;4343;53.648;10.098;2023-06-19T14:13:46;4.38;;;4.15;;
8610;SDS011;4343;53.648;10.098;2023-06-19T14:16:12;5.85;;;4.00;;
8610;SDS011;4343;53.648;10.098;2023-06-19T14:18:37;3.63;;;3.53;;
8610;SDS011;4343;53.648;10.098;2023-06-19T14:21:03;4.38;;;3.97;;
8610;SDS011;4343;53.648;10.098;2023-06-19T14:23:28;3.95;;;3.78;;
8610;SDS011;4343;53.648;10.098;2023-06-19T14:25:54;5.20;;;4.25;;
8610;SDS011;4343;53.648;10.098;2023-06-19T14:28:20;3.97;;;3.72;;
8610;SDS011;4343;53.648;10.098;2023-06-19T14:30:45;3.65;;;3.33;;
8610;SDS011;4343;53.648;10.098;2023-06-19T14:33:11;3.80;;;3.60;;
8610;SDS011;4343;53.648;10.098;2023-06-19T14:35:40;3.60;;;3.40;;
8610;SDS011;4343;53.648;10.098;2023-06-19T14:38:06;4.00;;;3.70;;
8610;SDS011;4343;53.648;10.098;2023-06-19T14:40:32;4.00;;;3.70;;
8610;SDS011;4343;53.648;10.098;2023-06-19T14:42:57;3.40;;;3.30;;
8610;SDS011;4343;53.648;10.098;2023-06-19T14:45:23;3.58;;;3.35;;
8610;SDS011;4343;53.648;10.098;2023-06-19T14:47:48;5.18;;;3.42;;
8610;SDS011;4343;53.648;10.098;2023-06-19T14:50:14;4.32;;;3.80;;
8610;SDS011;4343;53.648;10.098;2023-06-19T14:52:40;8.10;;;3.75;;
8610;SDS011;4343;53.648;10.098;2023-06-19T14:55:05;4.10;;;3.70;;
8610;SDS011;4343;53.648;10.098;2023-06-19T14:57:31;3.85;;;3.65;;
8610;SDS011;4343;53.648;10.098;2023-06-19T14:59:57;3.67;;;3.47;;